createdAt,value
2022-11-08T00:00:26.570Z,9
2022-11-08T00:01:26.965Z,8.8
2022-11-08T00:02:27.608Z,8.9
2022-11-08T00:03:29.765Z,8.9
2022-11-08T00:04:28.440Z,9.3
2022-11-08T00:05:28.442Z,9.3
2022-11-08T00:06:28.974Z,8.5
2022-11-08T00:07:29.180Z,8.1
2022-11-08T00:08:29.483Z,8.8
2022-11-08T00:09:30.198Z,9.2
2022-11-08T00:10:30.434Z,8.5
2022-11-08T00:11:30.742Z,8.9
2022-11-08T00:12:30.942Z,9.2
2022-11-08T00:13:31.484Z,8.8
2022-11-08T00:14:31.992Z,8.3
2022-11-08T00:15:32.402Z,9.2
2022-11-08T00:16:32.607Z,8.8
2022-11-08T00:17:33.135Z,9.3
2022-11-08T00:18:33.555Z,13.4
2022-11-08T00:19:33.867Z,25.8
2022-11-08T00:20:34.787Z,149.1
2022-11-08T00:21:34.706Z,136.5
2022-11-08T00:22:35.310Z,26.7
2022-11-08T00:23:35.216Z,12.5
2022-11-08T00:24:36.247Z,10.4
2022-11-08T00:25:36.249Z,9
2022-11-08T00:26:36.465Z,9.2
2022-11-08T00:27:36.884Z,9
2022-11-08T00:28:37.211Z,9.3
2022-11-08T00:29:38.018Z,9.2
2022-11-08T00:30:38.343Z,9.8
2022-11-08T00:31:38.542Z,10
2022-11-08T00:32:38.974Z,9.5
2022-11-08T00:33:39.386Z,9.8
2022-11-08T00:34:39.906Z,9.9
2022-11-08T00:35:40.108Z,9.3
2022-11-08T00:36:40.622Z,9.1
2022-11-08T00:37:40.942Z,9.5
2022-11-08T00:38:44.432Z,9.3
2022-11-08T00:39:42.189Z,9.5
2022-11-08T00:40:42.296Z,9.5
2022-11-08T00:41:42.715Z,9.5
2022-11-08T00:42:43.328Z,9.4
2022-11-08T00:43:43.540Z,9.7
2022-11-08T00:44:43.752Z,9.4
2022-11-08T00:45:44.374Z,9.6
2022-11-08T00:46:44.812Z,10.2
2022-11-08T00:47:45.024Z,10.6
2022-11-08T00:48:45.326Z,9.6
2022-11-08T00:49:45.852Z,9.9
2022-11-08T00:50:46.143Z,10.6
2022-11-08T00:51:46.582Z,9.9
2022-11-08T00:52:46.984Z,9.9
2022-11-08T00:53:47.404Z,10.9
2022-11-08T00:54:47.707Z,10.2
2022-11-08T00:55:48.334Z,10.9
2022-11-08T00:56:49.266Z,10.1
2022-11-08T00:58:03.661Z,13.1
2022-11-08T00:58:51.336Z,59.9
2022-11-08T00:59:51.634Z,158.2
2022-11-08T01:00:52.071Z,296.1
2022-11-08T01:01:52.666Z,224.6
2022-11-08T01:02:52.674Z,39.6
2022-11-08T01:03:53.818Z,29.9
2022-11-08T01:04:53.833Z,12.8
2022-11-08T01:05:55.064Z,11
2022-11-08T01:06:54.443Z,10.5
2022-11-08T01:07:54.867Z,10.3
2022-11-08T01:08:55.910Z,10.2
2022-11-08T01:09:55.596Z,10.4
2022-11-08T01:10:56.005Z,10.5
2022-11-08T01:11:56.336Z,11
2022-11-08T01:12:56.730Z,9.8
2022-11-08T01:13:59.100Z,10
2022-11-08T01:14:57.815Z,10.8
2022-11-08T01:15:58.292Z,11.1
2022-11-08T01:16:58.307Z,10.9
2022-11-08T01:17:58.625Z,10.8
2022-11-08T01:19:00.263Z,11.2
2022-11-08T01:19:59.869Z,10.6
2022-11-08T01:20:59.885Z,10.7
2022-11-08T01:22:00.296Z,11.5
2022-11-08T01:23:00.704Z,10.9
2022-11-08T01:24:01.218Z,10.6
2022-11-08T01:25:01.544Z,10.4
2022-11-08T01:26:07.574Z,11.1
2022-11-08T01:27:05.327Z,10.9
2022-11-08T01:28:06.355Z,9.7
2022-11-08T01:29:05.951Z,10.6
2022-11-08T01:30:07.520Z,10.1
2022-11-08T01:31:09.468Z,10.8
2022-11-08T01:32:06.893Z,11
2022-11-08T01:33:07.722Z,11
2022-11-08T01:34:07.841Z,10.7
2022-11-08T01:35:09.369Z,10.6
2022-11-08T01:36:13.369Z,10.9
2022-11-08T01:37:11.043Z,21.9
2022-11-08T01:38:11.345Z,32.7
2022-11-08T01:39:11.552Z,19.1
2022-11-08T01:40:12.704Z,14.6
2022-11-08T01:41:13.926Z,11.6
2022-11-08T01:42:12.905Z,11.2
2022-11-08T01:44:17.527Z,11.4
2022-11-08T01:47:23.274Z,11.6
2022-11-08T01:48:25.860Z,11.8
2022-11-08T01:50:28.327Z,11.5
2022-11-08T01:51:35.186Z,11.6
2022-11-08T01:52:40.197Z,10.9
2022-11-08T01:53:38.278Z,11.6
2022-11-08T01:55:42.276Z,12.1
2022-11-08T01:56:43.715Z,11.3
2022-11-08T01:58:48.420Z,11.5
2022-11-08T01:59:48.131Z,11.6
2022-11-08T02:00:46.701Z,11.3
2022-11-08T02:01:47.732Z,10.5
2022-11-08T02:03:52.575Z,10.2
2022-11-08T02:04:52.473Z,10.4
2022-11-08T02:05:52.789Z,10.8
2022-11-08T02:06:54.076Z,10.7
2022-11-08T02:08:56.607Z,10.5
2022-11-08T02:09:57.634Z,11.5
2022-11-08T02:10:55.904Z,11.1
2022-11-08T02:11:57.247Z,12.1
2022-11-08T02:12:56.639Z,11.4
2022-11-08T02:13:58.064Z,11.8
2022-11-08T02:14:57.452Z,15.4
2022-11-08T02:15:58.597Z,64.9
2022-11-08T02:16:57.880Z,19.7
2022-11-08T02:17:58.513Z,16
2022-11-08T02:18:59.024Z,11.4
2022-11-08T02:19:59.225Z,11.1
2022-11-08T02:22:08.346Z,10.6
2022-11-08T02:24:10.934Z,10.8
2022-11-08T02:25:08.588Z,11.2
2022-11-08T02:26:09.119Z,11
2022-11-08T02:27:11.043Z,11.4
2022-11-08T02:28:09.615Z,10.5
2022-11-08T02:30:14.341Z,11.3
2022-11-08T02:31:17.634Z,10.9
2022-11-08T02:32:15.274Z,11.4
2022-11-08T02:33:22.873Z,10.9
2022-11-08T02:34:28.208Z,10.8
2022-11-08T02:35:21.748Z,10.8
2022-11-08T02:36:23.204Z,10.6
2022-11-08T02:37:22.794Z,10.8
2022-11-08T02:38:24.243Z,10.4
2022-11-08T02:39:22.597Z,11.1
2022-11-08T02:40:23.024Z,11.2
2022-11-08T02:41:23.118Z,10.7
2022-11-08T02:42:23.552Z,11.7
2022-11-08T02:43:25.495Z,10.7
2022-11-08T02:44:24.263Z,10.5
2022-11-08T02:45:24.912Z,11.5
2022-11-08T02:46:25.300Z,11.4
2022-11-08T02:47:25.726Z,10.7
2022-11-08T02:48:26.345Z,11.2
2022-11-08T02:49:26.343Z,11.5
2022-11-08T02:50:26.866Z,11.1
2022-11-08T02:51:27.193Z,10.8
2022-11-08T02:52:27.390Z,10.7
2022-11-08T02:53:27.905Z,11.1
2022-11-08T02:54:28.346Z,22.7
2022-11-08T02:55:33.044Z,19.1
2022-11-08T02:56:30.998Z,12.8
2022-11-08T02:57:30.798Z,12.1
2022-11-08T02:58:31.133Z,11.2
2022-11-08T02:59:31.545Z,11.2
2022-11-08T03:00:32.153Z,11.3
2022-11-08T03:01:32.759Z,11.7
2022-11-08T03:02:32.738Z,11.6
2022-11-08T03:03:33.235Z,11.2
2022-11-08T03:04:33.824Z,10.8
2022-11-08T03:05:34.229Z,11.4
2022-11-08T03:06:34.861Z,10.9
2022-11-08T03:07:34.856Z,10.4
2022-11-08T03:08:35.210Z,11
2022-11-08T03:09:35.512Z,10.7
2022-11-08T03:10:36.226Z,10.9
2022-11-08T03:11:36.536Z,10.5
2022-11-08T03:12:37.155Z,10.6
2022-11-08T03:13:37.249Z,11.1
2022-11-08T03:14:37.682Z,10.8
2022-11-08T03:15:37.996Z,11
2022-11-08T03:16:38.708Z,11
2022-11-08T03:17:39.442Z,10.6
2022-11-08T03:18:39.446Z,11.1
2022-11-08T03:19:39.653Z,10.4
2022-11-08T03:20:39.865Z,11.2
2022-11-08T03:21:40.383Z,10.9
2022-11-08T03:22:40.816Z,11.1
2022-11-08T03:23:41.323Z,10.4
2022-11-08T03:24:41.633Z,10.5
2022-11-08T03:25:41.943Z,10.8
2022-11-08T03:26:42.460Z,11
2022-11-08T03:27:42.669Z,10.1
2022-11-08T03:28:43.291Z,11.4
2022-11-08T03:29:43.615Z,11.6
2022-11-08T03:30:44.122Z,11.2
2022-11-08T03:31:44.335Z,11.3
2022-11-08T03:32:44.751Z,12
2022-11-08T03:33:45.087Z,20
2022-11-08T03:34:45.483Z,31.9
2022-11-08T03:35:46.003Z,14.2
2022-11-08T03:36:46.519Z,12.3
2022-11-08T03:37:51.338Z,12.3
2022-11-08T03:38:48.786Z,10.7
2022-11-08T03:39:49.216Z,11.8
2022-11-08T03:40:49.614Z,11.7
2022-11-08T03:41:49.932Z,10.9
2022-11-08T03:42:50.447Z,11.7
2022-11-08T03:43:50.785Z,10.8
2022-11-08T03:44:51.288Z,11
2022-11-08T03:45:51.477Z,11.7
2022-11-08T03:46:51.806Z,11.2
2022-11-08T03:47:52.326Z,11
2022-11-08T03:48:52.643Z,11.9
2022-11-08T03:49:53.163Z,11.3
2022-11-08T03:50:53.813Z,11.4
2022-11-08T03:51:54.403Z,10.9
2022-11-08T03:52:56.762Z,10.9
2022-11-08T03:53:54.718Z,11
2022-11-08T03:54:55.137Z,10.6
2022-11-08T03:55:55.756Z,10.6
2022-11-08T03:56:55.866Z,10.1
2022-11-08T03:57:56.590Z,10.9
2022-11-08T03:58:56.600Z,10.9
2022-11-08T03:59:57.121Z,10.7
2022-11-08T04:00:57.589Z,10.6
2022-11-08T04:01:58.327Z,10.3
2022-11-08T04:03:03.200Z,10.1
2022-11-08T04:04:00.735Z,10.4
2022-11-08T04:05:01.040Z,10.3
2022-11-08T04:06:02.521Z,10.1
2022-11-08T04:07:01.767Z,10.7
2022-11-08T04:08:04.438Z,10.8
2022-11-08T04:09:02.602Z,10.2
2022-11-08T04:10:07.532Z,10.3
2022-11-08T04:11:05.415Z,10.8
2022-11-08T04:12:05.919Z,10.9
2022-11-08T04:13:05.698Z,10
2022-11-08T04:14:06.015Z,21.5
2022-11-08T04:15:09.498Z,33.2
2022-11-08T04:16:07.907Z,14.4
2022-11-08T04:17:07.162Z,10.6
2022-11-08T04:18:07.780Z,9.7
2022-11-08T04:19:07.993Z,9.8
2022-11-08T04:20:09.634Z,10.5
2022-11-08T04:21:16.317Z,10.2
2022-11-08T04:22:13.948Z,10.1
2022-11-08T04:23:15.187Z,9.4
2022-11-08T04:24:14.667Z,10
2022-11-08T04:25:15.613Z,9.5
2022-11-08T04:26:15.930Z,10
2022-11-08T04:27:15.739Z,9
2022-11-08T04:28:16.664Z,9.8
2022-11-08T04:29:16.657Z,10.5
2022-11-08T04:30:17.073Z,9.5
2022-11-08T04:31:19.655Z,9.8
2022-11-08T04:32:17.818Z,9
2022-11-08T04:33:18.324Z,9.1
2022-11-08T04:34:18.461Z,8.8
2022-11-08T04:35:18.964Z,9.1
2022-11-08T04:36:19.365Z,8.3
2022-11-08T04:37:19.891Z,8.1
2022-11-08T04:38:21.155Z,8.7
2022-11-08T04:39:20.725Z,8.6
2022-11-08T04:40:20.963Z,7.8
2022-11-08T04:41:23.497Z,7.8
2022-11-08T04:42:21.977Z,8.4
2022-11-08T04:43:22.181Z,7.9
2022-11-08T04:44:22.802Z,7.4
2022-11-08T04:45:24.349Z,8.3
2022-11-08T04:46:26.001Z,7.1
2022-11-08T04:47:23.948Z,7.2
2022-11-08T04:48:24.276Z,7.7
2022-11-08T04:49:24.677Z,7.9
2022-11-08T04:50:24.899Z,7.8
2022-11-08T04:51:28.686Z,7.2
2022-11-08T04:52:26.230Z,7.7
2022-11-08T04:53:26.372Z,7.5
2022-11-08T04:54:26.855Z,11.9
2022-11-08T04:55:27.281Z,27.4
2022-11-08T04:56:29.533Z,9.7
2022-11-08T04:57:29.035Z,8.1
2022-11-08T04:58:32.824Z,7.7
2022-11-08T04:59:31.607Z,7.7
2022-11-08T05:00:30.793Z,7.5
2022-11-08T05:01:32.146Z,7.6
2022-11-08T05:02:31.588Z,7.9
2022-11-08T05:03:32.257Z,7.9
2022-11-08T05:04:32.272Z,7.6
2022-11-08T05:05:32.666Z,7.4
2022-11-08T05:06:33.287Z,7.5
2022-11-08T05:07:33.517Z,7.5
2022-11-08T05:08:34.118Z,7.9
2022-11-08T05:09:34.231Z,8.4
2022-11-08T05:10:34.677Z,7.7
2022-11-08T05:11:35.063Z,7.7
2022-11-08T05:12:35.581Z,7.9
2022-11-08T05:13:36.505Z,8
2022-11-08T05:14:36.205Z,7.7
2022-11-08T05:15:36.727Z,7.6
2022-11-08T05:16:37.454Z,7.6
2022-11-08T05:17:37.563Z,7.9
2022-11-08T05:18:37.993Z,8.2
2022-11-08T05:19:38.395Z,8.1
2022-11-08T05:20:38.512Z,7.6
2022-11-08T05:21:39.116Z,7.6
2022-11-08T05:22:39.432Z,8
2022-11-08T05:23:39.850Z,7.8
2022-11-08T05:24:40.269Z,7.3
2022-11-08T05:25:40.481Z,7.4
2022-11-08T05:26:42.645Z,7.8
2022-11-08T05:27:41.623Z,7.8
2022-11-08T05:28:42.038Z,7.8
2022-11-08T05:29:42.498Z,7.2
2022-11-08T05:30:42.691Z,6.9
2022-11-08T05:31:43.178Z,7.2
2022-11-08T05:32:43.409Z,7.3
2022-11-08T05:33:43.758Z,7.5
2022-11-08T05:34:44.115Z,7.7
2022-11-08T05:35:44.746Z,52.9
2022-11-08T05:36:45.064Z,25.2
2022-11-08T05:37:45.572Z,10.1
2022-11-08T05:38:45.787Z,7.7
2022-11-08T05:39:46.105Z,7.2
2022-11-08T05:40:46.716Z,7.4
2022-11-08T05:41:47.148Z,7.1
2022-11-08T05:42:47.558Z,7.1
2022-11-08T05:43:49.614Z,7.3
2022-11-08T05:44:48.384Z,6.4
2022-11-08T05:45:48.697Z,6.9
2022-11-08T05:46:48.918Z,7
2022-11-08T05:47:49.324Z,7.5
2022-11-08T05:48:50.171Z,6.8
2022-11-08T05:49:50.469Z,7.6
2022-11-08T05:50:50.891Z,7.5
2022-11-08T05:51:51.111Z,7.7
2022-11-08T05:52:54.691Z,7.4
2022-11-08T05:53:52.164Z,7.2
2022-11-08T05:54:52.654Z,7.6
2022-11-08T05:56:01.377Z,7.9
2022-11-08T05:56:53.893Z,7.6
2022-11-08T05:57:54.408Z,7.9
2022-11-08T05:58:54.621Z,7.7
2022-11-08T05:59:55.045Z,8.1
2022-11-08T06:02:00.709Z,8
2022-11-08T06:03:05.002Z,7.8
2022-11-08T06:04:02.845Z,7.5
2022-11-08T06:05:02.952Z,7.6
2022-11-08T06:06:06.049Z,7.5
2022-11-08T06:07:03.990Z,7.9
2022-11-08T06:08:04.828Z,7.3
2022-11-08T06:09:04.822Z,8.7
2022-11-08T06:10:06.482Z,8.5
2022-11-08T06:11:08.135Z,8.3
2022-11-08T06:12:06.617Z,8.1
2022-11-08T06:13:06.197Z,8.1
2022-11-08T06:14:06.804Z,8.3
2022-11-08T06:15:08.857Z,9.2
2022-11-08T06:16:09.993Z,41.3
2022-11-08T06:17:07.931Z,15.1
2022-11-08T06:18:08.364Z,12
2022-11-08T06:19:08.583Z,8.8
2022-11-08T06:20:10.325Z,9.1
2022-11-08T06:21:12.586Z,8.6
2022-11-08T06:22:10.653Z,9
2022-11-08T06:23:10.552Z,14
2022-11-08T06:24:11.005Z,10.2
2022-11-08T06:25:11.282Z,9.4
2022-11-08T06:26:11.801Z,9.1
2022-11-08T06:27:12.312Z,8.9
2022-11-08T06:28:12.643Z,9.1
2022-11-08T06:29:12.862Z,9.1
2022-11-08T06:30:14.183Z,9.4
2022-11-08T06:31:13.693Z,9.3
2022-11-08T06:32:14.189Z,9.7
2022-11-08T06:33:15.095Z,9.3
2022-11-08T06:34:15.033Z,9.4
2022-11-08T06:35:15.647Z,9.3
2022-11-08T06:36:15.863Z,9.3
2022-11-08T06:37:16.685Z,9.5
2022-11-08T06:38:16.723Z,9.5
2022-11-08T06:39:16.908Z,9.5
2022-11-08T06:40:17.723Z,9.7
2022-11-08T06:41:19.783Z,9.3
2022-11-08T06:42:18.351Z,9.4
2022-11-08T06:43:20.195Z,9.3
2022-11-08T06:44:18.993Z,9.4
2022-11-08T06:45:20.113Z,9.6
2022-11-08T06:46:19.821Z,9.2
2022-11-08T06:47:20.479Z,11.7
2022-11-08T06:48:20.562Z,10
2022-11-08T06:49:21.058Z,9.2
2022-11-08T06:50:21.375Z,9.4
2022-11-08T06:51:22.103Z,8.8
2022-11-08T06:52:22.426Z,8.9
2022-11-08T06:53:22.622Z,10.6
2022-11-08T06:54:25.897Z,23.6
2022-11-08T06:55:24.610Z,9.2
2022-11-08T06:56:24.897Z,8.6
2022-11-08T06:57:25.539Z,8.9
2022-11-08T06:58:25.735Z,10
2022-11-08T06:59:27.287Z,15.1
2022-11-08T07:00:27.694Z,12.9
2022-11-08T07:01:27.195Z,8.8
2022-11-08T07:02:27.671Z,8.8
2022-11-08T07:03:27.816Z,8.4
2022-11-08T07:04:28.327Z,7.8
2022-11-08T07:05:30.422Z,7.8
2022-11-08T07:06:30.796Z,7.9
2022-11-08T07:07:29.684Z,7.2
2022-11-08T07:08:30.200Z,7.4
2022-11-08T07:09:30.214Z,6.9
2022-11-08T07:10:32.250Z,7.1
2022-11-08T07:11:31.239Z,6.4
2022-11-08T07:12:31.660Z,6.4
2022-11-08T07:13:31.983Z,6.4
2022-11-08T07:14:32.396Z,7.9
2022-11-08T07:15:34.353Z,6.8
2022-11-08T07:16:33.325Z,6.5
2022-11-08T07:17:38.456Z,6.2
2022-11-08T07:18:36.727Z,6.1
2022-11-08T07:19:36.852Z,6.3
2022-11-08T07:20:38.057Z,5.2
2022-11-08T07:21:37.760Z,6
2022-11-08T07:22:38.082Z,5.9
2022-11-08T07:23:38.508Z,6.2
2022-11-08T07:24:39.117Z,5.5
2022-11-08T07:25:39.333Z,5.2
2022-11-08T07:26:39.843Z,5.2
2022-11-08T07:27:40.255Z,5.5
2022-11-08T07:28:41.202Z,5.2
2022-11-08T07:29:40.914Z,5.6
2022-11-08T07:30:41.427Z,5.5
2022-11-08T07:31:41.819Z,5.1
2022-11-08T07:32:42.131Z,4.9
2022-11-08T07:33:42.564Z,5.2
2022-11-08T07:34:43.070Z,5
2022-11-08T07:35:45.945Z,5
2022-11-08T07:36:44.114Z,5.1
2022-11-08T07:37:45.236Z,5.3
2022-11-08T07:38:44.841Z,5.1
2022-11-08T07:39:45.062Z,4.6
2022-11-08T07:40:45.357Z,4.9
2022-11-08T07:41:46.106Z,4.9
2022-11-08T07:43:48.756Z,6.4
2022-11-08T07:44:49.073Z,7.4
2022-11-08T07:46:50.110Z,79.4
2022-11-08T07:48:53.090Z,4.8
2022-11-08T07:49:53.213Z,4.6
2022-11-08T07:50:54.032Z,5.4
2022-11-08T07:51:54.142Z,4.7
2022-11-08T07:52:55.173Z,4.7
2022-11-08T07:53:58.022Z,5
2022-11-08T07:54:57.962Z,4.8
2022-11-08T07:55:58.506Z,4.9
2022-11-08T07:56:58.992Z,4.8
2022-11-08T07:58:00.114Z,5.2
2022-11-08T07:58:59.733Z,4.5
2022-11-08T08:00:04.841Z,4.6
2022-11-08T08:01:05.413Z,4.6
2022-11-08T08:02:05.390Z,4.6
2022-11-08T08:03:07.519Z,4.7
2022-11-08T08:04:06.203Z,4.5
2022-11-08T08:05:07.122Z,4.3
2022-11-08T08:06:06.971Z,4.9
2022-11-08T08:07:07.547Z,4.7
2022-11-08T08:08:08.074Z,5
2022-11-08T08:09:08.075Z,4.3
2022-11-08T08:10:09.614Z,4.5
2022-11-08T08:11:10.552Z,4.6
2022-11-08T08:12:09.445Z,5.3
2022-11-08T08:13:09.744Z,4.6
2022-11-08T08:14:10.153Z,4.4
2022-11-08T08:15:11.083Z,5
2022-11-08T08:16:10.892Z,5.8
2022-11-08T08:17:11.608Z,4.5
2022-11-08T08:18:11.717Z,4.6
2022-11-08T08:19:12.038Z,5
2022-11-08T08:20:13.175Z,4.6
2022-11-08T08:21:13.076Z,4.5
2022-11-08T08:22:13.498Z,5.1
2022-11-08T08:23:13.874Z,4.8
2022-11-08T08:24:14.416Z,4.8
2022-11-08T08:25:15.353Z,5.3
2022-11-08T08:26:15.053Z,4.9
2022-11-08T08:27:15.365Z,5.2
2022-11-08T08:28:15.885Z,5.5
2022-11-08T08:29:16.190Z,33.8
2022-11-08T08:30:17.684Z,7.1
2022-11-08T08:31:17.236Z,5.2
2022-11-08T08:32:17.539Z,5.1
2022-11-08T08:33:34.736Z,5.1
2022-11-08T08:34:22.684Z,5.2
2022-11-08T08:35:22.893Z,5.4
2022-11-08T08:36:23.300Z,5.6
2022-11-08T08:37:23.747Z,5.3
2022-11-08T08:38:24.342Z,4.8
2022-11-08T08:39:24.654Z,4.6
2022-11-08T08:40:25.172Z,6.4
2022-11-08T08:41:25.297Z,4.8
2022-11-08T08:42:25.812Z,5.1
2022-11-08T08:43:26.214Z,4.9
2022-11-08T08:44:26.648Z,4.7
2022-11-08T08:45:27.876Z,4.4
2022-11-08T08:46:27.784Z,11.6
2022-11-08T08:47:28.603Z,7
2022-11-08T08:48:28.815Z,4.9
2022-11-08T08:49:28.826Z,5.5
2022-11-08T08:50:31.285Z,4.8
2022-11-08T08:51:29.344Z,4.7
2022-11-08T08:52:29.676Z,6.2
2022-11-08T08:53:30.168Z,5.6
2022-11-08T08:54:30.809Z,4.7
2022-11-08T08:55:31.445Z,5
2022-11-08T08:56:31.627Z,4.9
2022-11-08T08:57:32.257Z,5.3
2022-11-08T08:58:32.540Z,5.1
2022-11-08T09:01:38.410Z,4.8
2022-11-08T09:02:41.316Z,4.6
2022-11-08T09:03:40.275Z,4.8
2022-11-08T09:04:40.591Z,4.8
2022-11-08T09:05:41.879Z,4.6
2022-11-08T09:06:41.273Z,4.9
2022-11-08T09:07:42.147Z,4.9
2022-11-08T09:08:42.154Z,4.3
2022-11-08T09:09:42.677Z,4.8
2022-11-08T09:10:43.005Z,4.7
2022-11-08T09:11:43.511Z,6.8
2022-11-08T09:12:43.810Z,33.8
2022-11-08T09:13:44.134Z,63.8
2022-11-08T09:14:44.464Z,38.1
2022-11-08T09:15:45.064Z,9.6
2022-11-08T09:16:45.487Z,4.8
2022-11-08T09:17:45.794Z,4.5
2022-11-08T09:18:46.191Z,4.6
2022-11-08T09:19:46.625Z,4.6
2022-11-08T09:20:47.143Z,4.5
2022-11-08T09:21:47.505Z,4.5
2022-11-08T09:22:47.771Z,3.9
2022-11-08T09:23:48.287Z,4.3
2022-11-08T09:24:48.851Z,4.1
2022-11-08T09:25:49.131Z,4.4
2022-11-08T09:26:49.544Z,5.9
2022-11-08T09:27:49.756Z,5.5
2022-11-08T09:28:50.277Z,5.5
2022-11-08T09:29:50.899Z,4.8
2022-11-08T09:30:51.307Z,4.8
2022-11-08T09:31:51.723Z,3.9
2022-11-08T09:33:01.780Z,3.6
2022-11-08T09:33:54.811Z,3.3
2022-11-08T09:34:56.184Z,3.4
2022-11-08T09:35:55.741Z,3.5
2022-11-08T09:36:56.265Z,3.3
2022-11-08T09:37:56.778Z,3.6
2022-11-08T09:38:57.091Z,3.7
2022-11-08T09:39:57.415Z,3.4
2022-11-08T09:49:33.102Z,3.2
2022-11-08T09:50:37.420Z,3.2
2022-11-08T09:51:33.738Z,3.9
2022-11-08T09:52:33.737Z,3
2022-11-08T09:56:38.780Z,3.3
2022-11-08T10:00:47.904Z,3
2022-11-08T10:01:49.332Z,3.5
2022-11-08T10:02:49.060Z,10.8
2022-11-08T10:21:53.607Z,3.8
2022-11-08T10:22:48.676Z,3.4
2022-11-08T10:26:55.471Z,3.6
2022-11-08T10:27:56.286Z,4
2022-11-08T10:30:57.945Z,3.3
2022-11-08T10:33:02.474Z,3.8
2022-11-08T10:40:21.665Z,3.9
2022-11-08T10:44:24.153Z,5.2
2022-11-08T10:45:21.902Z,4
2022-11-08T10:47:29.592Z,30.5
2022-11-08T10:48:27.239Z,68.7
2022-11-08T10:49:31.980Z,17.1
2022-11-08T10:51:31.986Z,4.1
2022-11-08T10:53:33.823Z,3.9
2022-11-08T10:55:35.182Z,30.6
2022-11-08T10:58:42.164Z,4.7
2022-11-08T10:59:40.626Z,4.5
2022-11-08T11:00:40.738Z,10.4
2022-11-08T11:02:43.720Z,4.4
2022-11-08T11:03:44.545Z,5.9
2022-11-08T11:04:43.628Z,8.4
2022-11-08T11:06:47.589Z,4.6
2022-11-08T11:08:55.955Z,4.7
2022-11-08T11:09:53.721Z,4.9
2022-11-08T11:10:54.122Z,4
2022-11-08T11:14:59.269Z,5.5
2022-11-08T11:16:02.344Z,3.8
2022-11-08T11:17:05.726Z,3.7
2022-11-08T11:18:05.336Z,4.4
2022-11-08T11:19:13.203Z,4.3
2022-11-08T11:20:06.361Z,4.8
2022-11-08T11:21:16.715Z,5
2022-11-08T11:22:09.860Z,5.1
2022-11-08T11:23:11.903Z,4.7
2022-11-08T11:24:19.524Z,3.9
2022-11-08T11:25:22.782Z,4
2022-11-08T11:28:19.073Z,4.7
2022-11-08T11:29:28.654Z,3.7
2022-11-08T11:30:32.841Z,4.7
2022-11-08T11:31:25.474Z,4.2
2022-11-08T11:32:34.250Z,5
2022-11-08T11:33:29.439Z,4.2
2022-11-08T11:34:40.142Z,3.7
2022-11-08T11:36:31.357Z,15.5
2022-11-08T11:37:43.139Z,30.5
2022-11-08T11:40:46.647Z,4.5
2022-11-08T11:41:55.343Z,5
2022-11-08T11:48:01.027Z,3.4
2022-11-08T11:51:10.841Z,3.7
2022-11-08T11:53:18.044Z,3.7
2022-11-08T11:54:16.728Z,3.7
2022-11-08T11:55:17.453Z,3.8
2022-11-08T12:00:37.455Z,3.5
2022-11-08T12:46:30.995Z,3.5
2022-11-08T12:55:54.814Z,3.3
2022-11-08T12:56:56.143Z,2.7
2022-11-08T12:57:57.482Z,3.1
2022-11-08T12:58:56.087Z,3.4
2022-11-08T13:02:02.633Z,3
2022-11-08T13:09:27.965Z,3.1
2022-11-08T13:14:37.208Z,52.2
2022-11-08T13:15:33.330Z,15.4
2022-11-08T13:16:38.260Z,3.4
2022-11-08T13:17:35.812Z,3.2
2022-11-08T13:18:43.383Z,2.9
2022-11-08T13:20:47.493Z,2.7
2022-11-08T13:21:44.743Z,3
2022-11-08T13:23:49.150Z,3
2022-11-08T13:24:49.587Z,3.2
2022-11-08T13:25:52.136Z,3.2
2022-11-08T13:26:50.303Z,3
2022-11-08T13:27:50.722Z,3.3
2022-11-08T13:28:52.774Z,3.4
2022-11-08T13:29:53.302Z,3.2
2022-11-08T13:41:26.136Z,2.6
2022-11-08T13:43:30.962Z,3.1
2022-11-08T13:45:32.108Z,2.8
2022-11-08T13:48:41.544Z,2.7
2022-11-08T13:49:34.276Z,3.2
2022-11-08T13:51:37.873Z,3.1
2022-11-08T13:58:54.918Z,24.8
2022-11-08T13:59:56.555Z,43.4
2022-11-08T14:00:56.307Z,17.8
2022-11-08T14:03:00.785Z,3.6
2022-11-08T14:04:01.317Z,3.6
2022-11-08T14:15:35.984Z,2.6
2022-11-08T14:18:36.416Z,3
2022-11-08T14:19:39.597Z,3
2022-11-08T14:20:42.271Z,3.1
2022-11-08T14:21:47.694Z,2.9
2022-11-08T14:22:48.870Z,2.9
2022-11-08T14:23:45.451Z,2.8
2022-11-08T14:24:44.134Z,13.2
2022-11-08T14:25:48.330Z,5.3
2022-11-08T14:26:47.515Z,3.8
2022-11-08T14:27:46.392Z,3
2022-11-08T14:28:48.559Z,9.5
2022-11-08T14:29:59.117Z,3.6
2022-11-08T14:30:52.144Z,2.8
2022-11-08T14:34:02.406Z,2.9
2022-11-08T14:37:05.703Z,2.8
2022-11-08T14:41:19.148Z,4.1
2022-11-08T14:43:21.298Z,9.2
2022-11-08T14:44:19.791Z,4.7
2022-11-08T14:45:25.736Z,3.5
2022-11-08T14:47:31.375Z,3.5
2022-11-08T14:48:31.288Z,4.1
2022-11-08T14:49:36.624Z,4.3
2022-11-08T14:50:35.495Z,3.5
2022-11-08T14:51:34.888Z,3.1
2022-11-08T14:52:35.228Z,3.8
2022-11-08T14:53:49.230Z,3
2022-11-08T14:54:42.481Z,3.1
2022-11-08T14:55:45.766Z,5.3
2022-11-08T14:56:43.225Z,3.4
2022-11-08T14:57:45.682Z,2.8
2022-11-08T14:58:45.169Z,3.4
2022-11-08T14:59:44.768Z,3.1
2022-11-08T15:00:47.189Z,3.4
2022-11-08T15:01:48.416Z,2.9
2022-11-08T15:02:54.817Z,3.3
2022-11-08T15:04:48.194Z,3.1
2022-11-08T15:06:55.735Z,3
2022-11-08T15:07:53.729Z,3.2
2022-11-08T15:08:55.589Z,3.5
2022-11-08T15:09:55.279Z,3.8
2022-11-08T15:11:58.163Z,3.1
2022-11-08T15:12:56.645Z,3
2022-11-08T15:15:01.147Z,2.8
2022-11-08T15:17:03.316Z,2.9
2022-11-08T15:20:17.765Z,2.9
2022-11-08T15:24:16.155Z,3.1
2022-11-08T15:27:24.684Z,10.4
2022-11-08T15:28:24.074Z,6.2
2022-11-08T15:29:22.639Z,15
2022-11-08T15:31:27.568Z,19.7
2022-11-08T15:32:25.322Z,6
2022-11-08T15:33:31.894Z,3.8
2022-11-08T15:35:39.577Z,3.2
2022-11-08T15:36:35.698Z,4
2022-11-08T15:37:41.241Z,4.1
2022-11-08T15:38:39.804Z,3.2
2022-11-08T15:39:40.128Z,3.3
2022-11-08T15:40:38.795Z,3.7
2022-11-08T15:41:40.944Z,3.9
2022-11-08T15:42:44.750Z,3.3
2022-11-08T15:43:42.403Z,2.8
2022-11-08T15:46:44.983Z,3.6
2022-11-08T15:47:47.133Z,3.3
2022-11-08T15:49:48.777Z,3.3
2022-11-08T15:50:49.714Z,3.1
2022-11-08T15:51:51.041Z,3.5
2022-11-08T15:52:54.945Z,3.6
2022-11-08T15:53:52.604Z,3.8
2022-11-08T15:54:52.814Z,4
2022-11-08T15:56:57.023Z,3.4
2022-11-08T15:57:57.435Z,3.5
2022-11-08T15:58:56.429Z,3.2
2022-11-08T15:59:57.965Z,3.5
2022-11-08T16:00:58.757Z,3.7
2022-11-08T16:02:00.679Z,3.4
2022-11-08T16:02:59.314Z,3.5
2022-11-08T16:03:58.710Z,3.3
2022-11-08T16:04:59.948Z,3.6
2022-11-08T16:05:59.534Z,3.7
2022-11-08T16:07:00.912Z,3.5
2022-11-08T16:08:00.476Z,3.3
2022-11-08T16:09:00.632Z,3.2
2022-11-08T16:10:01.112Z,3.4
2022-11-08T16:11:01.628Z,9.2
2022-11-08T16:12:03.364Z,18.1
2022-11-08T16:13:03.487Z,80.2
2022-11-08T16:14:02.663Z,315.8
2022-11-08T16:15:03.401Z,151.4
2022-11-08T16:17:10.772Z,6
2022-11-08T16:18:11.295Z,5
2022-11-08T16:21:14.906Z,3.8
2022-11-08T16:22:18.205Z,4.1
2022-11-08T16:23:17.059Z,3.7
2022-11-08T16:24:17.785Z,3.7
2022-11-08T16:25:18.108Z,3.4
2022-11-08T16:26:18.713Z,3.7
2022-11-08T16:27:19.336Z,3.8
2022-11-08T16:28:33.058Z,3.8
2022-11-08T16:29:23.448Z,3.9
2022-11-08T16:30:21.205Z,4
2022-11-08T16:31:21.637Z,3.3
2022-11-08T16:32:21.944Z,3.7
2022-11-08T16:33:27.776Z,4
2022-11-08T16:34:25.846Z,3.7
2022-11-08T16:35:26.256Z,4.3
2022-11-08T16:36:26.788Z,3.9
2022-11-08T16:37:26.676Z,4.2
2022-11-08T16:38:36.217Z,4.1
2022-11-08T16:39:28.944Z,3.6
2022-11-08T16:40:29.253Z,4.1
2022-11-08T16:41:30.013Z,4
2022-11-08T16:42:30.185Z,4.1
2022-11-08T16:43:31.115Z,3.9
2022-11-08T16:44:31.227Z,3.7
2022-11-08T16:46:03.284Z,3.9
2022-11-08T16:46:31.753Z,3.7
2022-11-08T16:47:33.291Z,3.7
2022-11-08T16:48:32.888Z,4.1
2022-11-08T16:49:32.998Z,4.1
2022-11-08T16:50:33.622Z,4
2022-11-08T16:51:34.145Z,3.8
2022-11-08T16:52:34.254Z,4.4
2022-11-08T16:53:35.692Z,4.4
2022-11-08T16:54:35.085Z,5.4
2022-11-08T16:55:35.294Z,5.2
2022-11-08T16:56:35.701Z,4.7
2022-11-08T16:57:36.126Z,14.3
2022-11-08T16:58:36.654Z,10.6
2022-11-08T16:59:37.212Z,9.6
2022-11-08T17:00:39.638Z,48.1
2022-11-08T17:01:38.117Z,16.1
2022-11-08T17:02:41.995Z,7.9
2022-11-08T17:03:39.454Z,12
2022-11-08T17:04:39.950Z,27.4
2022-11-08T17:05:41.395Z,16.3
2022-11-08T17:06:41.119Z,6.3
2022-11-08T17:07:41.116Z,5.5
2022-11-08T17:08:41.821Z,4.5
2022-11-08T17:09:42.044Z,4.2
2022-11-08T17:10:43.070Z,4.6
2022-11-08T17:11:42.874Z,3.9
2022-11-08T17:12:43.496Z,4.3
2022-11-08T17:13:43.706Z,5.9
2022-11-08T17:14:43.915Z,6.2
2022-11-08T17:15:44.836Z,4.8
2022-11-08T17:16:44.949Z,4.7
2022-11-08T17:17:45.774Z,4
2022-11-08T17:18:51.259Z,4.1
2022-11-08T17:19:50.405Z,4
2022-11-08T17:20:50.717Z,4.1
2022-11-08T17:21:51.024Z,3.8
2022-11-08T17:22:52.068Z,3.8
2022-11-08T17:23:52.073Z,3.5
2022-11-08T17:24:52.578Z,3.5
2022-11-08T17:25:52.708Z,4
2022-11-08T17:26:53.318Z,4
2022-11-08T17:27:53.426Z,4.2
2022-11-08T17:28:56.610Z,3.9
2022-11-08T17:29:54.160Z,4.1
2022-11-08T17:30:54.556Z,4.2
2022-11-08T17:31:55.184Z,3.7
2022-11-08T17:32:55.601Z,4
2022-11-08T17:33:56.019Z,4
2022-11-08T17:34:56.334Z,3.6
2022-11-08T17:35:56.855Z,3.5
2022-11-08T17:36:57.160Z,3.2
2022-11-08T17:37:57.788Z,3.5
2022-11-08T17:38:58.006Z,3.8
2022-11-08T17:39:58.865Z,4.8
2022-11-08T17:42:01.810Z,12.7
2022-11-08T17:43:02.123Z,6.5